Williston, North Dakota
Current Conditions -  °F | °C
As of 6:52 PM on Tuesday 27 Jan 2015 (Local Time) from KISN Reporting Station
Clear Clear  
Wind Chill: 36°   Ceiling: Unl
Heat Index: 36°   Visibility: 10mi
Dew Point: 32°   Wind: 0mph
Humidity: 86%   Direction: NA
Pressure: 29.78"   Gusts: NA
Location:  48.15°N, 103.62°W
Report Text: KISN 280052Z AUTO 00000KT 10SM CLR 02/00 A2978 RMK AO2 SLP105 T00220000
Loading
Personal Weather Stations






























Interactive Weather Map New forecast layout! Learn more

10-Day Weather Forecast

Advertisements
Track Severe Weather on mobile